sensor_id;sensor_type;location;lat;lon;timestamp;pressure;altitude;pressure_sealevel;temperature;humidity
77240;BME280;66258;53.170;-2.240;2024-01-15T00:01:56;99832.38;;;8.62;71.13
77240;BME280;66258;53.170;-2.240;2024-01-15T00:04:24;99832.75;;;8.67;71.47
77240;BME280;66258;53.170;-2.240;2024-01-15T00:06:52;99825.47;;;8.68;71.50
77240;BME280;66258;53.170;-2.240;2024-01-15T00:09:19;99833.41;;;8.69;71.50
77240;BME280;66258;53.170;-2.240;2024-01-15T00:11:47;99822.78;;;8.68;71.63
77240;BME280;66258;53.170;-2.240;2024-01-15T00:14:16;99819.25;;;8.67;71.75
77240;BME280;66258;53.170;-2.240;2024-01-15T00:16:43;99817.56;;;8.66;71.90
77240;BME280;66258;53.170;-2.240;2024-01-15T00:19:12;99813.53;;;8.70;72.39
77240;BME280;66258;53.170;-2.240;2024-01-15T00:21:43;99822.44;;;8.79;72.68
77240;BME280;66258;53.170;-2.240;2024-01-15T00:24:11;99815.88;;;8.81;73.02
77240;BME280;66258;53.170;-2.240;2024-01-15T00:26:41;99817.22;;;8.85;73.01
77240;BME280;66258;53.170;-2.240;2024-01-15T00:29:09;99817.59;;;8.90;72.76
77240;BME280;66258;53.170;-2.240;2024-01-15T00:31:36;99816.56;;;8.83;72.34
77240;BME280;66258;53.170;-2.240;2024-01-15T00:34:04;99813.66;;;8.77;72.30
77240;BME280;66258;53.170;-2.240;2024-01-15T00:36:36;99818.22;;;8.76;73.06
77240;BME280;66258;53.170;-2.240;2024-01-15T00:39:03;99817.22;;;8.85;73.92
77240;BME280;66258;53.170;-2.240;2024-01-15T00:41:32;99814.03;;;8.90;74.46
77240;BME280;66258;53.170;-2.240;2024-01-15T00:43:59;99809.47;;;9.07;74.48
77240;BME280;66258;53.170;-2.240;2024-01-15T00:46:26;99813.84;;;9.24;73.86
77240;BME280;66258;53.170;-2.240;2024-01-15T00:48:53;99806.75;;;9.31;72.93
77240;BME280;66258;53.170;-2.240;2024-01-15T00:51:21;99813.69;;;9.34;72.18
77240;BME280;66258;53.170;-2.240;2024-01-15T00:53:51;99818.06;;;9.35;71.70
77240;BME280;66258;53.170;-2.240;2024-01-15T00:56:20;99820.59;;;9.20;71.42
77240;BME280;66258;53.170;-2.240;2024-01-15T00:58:48;99811.16;;;9.24;70.91
77240;BME280;66258;53.170;-2.240;2024-01-15T01:01:15;99816.22;;;9.27;70.24
77240;BME280;66258;53.170;-2.240;2024-01-15T01:03:43;99819.09;;;9.34;69.33
77240;BME280;66258;53.170;-2.240;2024-01-15T01:06:14;99828.03;;;9.34;68.58
77240;BME280;66258;53.170;-2.240;2024-01-15T01:08:42;99819.06;;;9.17;67.96
77240;BME280;66258;53.170;-2.240;2024-01-15T01:11:14;99825.34;;;9.02;67.76
77240;BME280;66258;53.170;-2.240;2024-01-15T01:13:41;99821.94;;;9.24;66.81
77240;BME280;66258;53.170;-2.240;2024-01-15T01:16:09;99813.84;;;9.16;65.65
77240;BME280;66258;53.170;-2.240;2024-01-15T01:18:37;99804.72;;;9.17;64.80
77240;BME280;66258;53.170;-2.240;2024-01-15T01:21:05;99813.53;;;9.11;64.36
77240;BME280;66258;53.170;-2.240;2024-01-15T01:23:34;99801.03;;;9.02;63.90
77240;BME280;66258;53.170;-2.240;2024-01-15T01:26:02;99806.94;;;8.97;63.32
77240;BME280;66258;53.170;-2.240;2024-01-15T01:28:31;99803.22;;;8.98;62.88
77240;BME280;66258;53.170;-2.240;2024-01-15T01:31:02;99806.59;;;9.00;61.92
77240;BME280;66258;53.170;-2.240;2024-01-15T01:33:33;99805.78;;;8.91;61.69
77240;BME280;66258;53.170;-2.240;2024-01-15T01:36:07;99798.84;;;9.05;61.40
77240;BME280;66258;53.170;-2.240;2024-01-15T01:38:35;99802.72;;;8.94;60.74
77240;BME280;66258;53.170;-2.240;2024-01-15T01:41:03;99804.06;;;8.99;60.18
77240;BME280;66258;53.170;-2.240;2024-01-15T01:43:36;99805.06;;;8.98;60.05
77240;BME280;66258;53.170;-2.240;2024-01-15T01:46:05;99813.03;;;8.91;60.06
77240;BME280;66258;53.170;-2.240;2024-01-15T01:48:33;99809.16;;;8.93;59.87
77240;BME280;66258;53.170;-2.240;2024-01-15T01:51:03;99814.69;;;9.00;59.58
77240;BME280;66258;53.170;-2.240;2024-01-15T01:53:33;99811.50;;;8.88;59.71
77240;BME280;66258;53.170;-2.240;2024-01-15T01:56:02;99809.78;;;8.95;59.26
77240;BME280;66258;53.170;-2.240;2024-01-15T01:58:32;99813.72;;;8.93;59.50
77240;BME280;66258;53.170;-2.240;2024-01-15T02:01:02;99804.41;;;8.87;59.40
77240;BME280;66258;53.170;-2.240;2024-01-15T02:03:30;99806.09;;;8.88;59.33
77240;BME280;66258;53.170;-2.240;2024-01-15T02:05:57;99802.41;;;8.89;59.13
77240;BME280;66258;53.170;-2.240;2024-01-15T02:08:27;99800.88;;;8.87;58.90
77240;BME280;66258;53.170;-2.240;2024-01-15T02:10:58;99804.41;;;8.87;58.77
77240;BME280;66258;53.170;-2.240;2024-01-15T02:13:27;99797.66;;;8.83;58.62
77240;BME280;66258;53.170;-2.240;2024-01-15T02:15:54;99798.66;;;8.66;58.72
77240;BME280;66258;53.170;-2.240;2024-01-15T02:18:23;99790.91;;;8.63;58.74
77240;BME280;66258;53.170;-2.240;2024-01-15T02:20:52;99794.09;;;8.58;58.77
77240;BME280;66258;53.170;-2.240;2024-01-15T02:23:21;99792.25;;;8.51;58.80
77240;BME280;66258;53.170;-2.240;2024-01-15T02:25:49;99792.91;;;8.45;59.16
77240;BME280;66258;53.170;-2.240;2024-01-15T02:28:17;99804.81;;;8.34;59.45
77240;BME280;66258;53.170;-2.240;2024-01-15T02:30:47;99801.25;;;8.25;59.46
77240;BME280;66258;53.170;-2.240;2024-01-15T02:33:15;99797.84;;;8.15;59.53
77240;BME280;66258;53.170;-2.240;2024-01-15T02:35:46;99798.78;;;7.98;60.42
77240;BME280;66258;53.170;-2.240;2024-01-15T02:38:13;99796.03;;;7.90;61.02
77240;BME280;66258;53.170;-2.240;2024-01-15T02:40:43;99793.56;;;7.97;61.18
77240;BME280;66258;53.170;-2.240;2024-01-15T02:43:12;99788.47;;;7.93;61.18
77240;BME280;66258;53.170;-2.240;2024-01-15T02:45:40;99785.94;;;7.92;61.16
77240;BME280;66258;53.170;-2.240;2024-01-15T02:48:09;99788.31;;;7.95;61.24
77240;BME280;66258;53.170;-2.240;2024-01-15T02:50:37;99791.69;;;7.89;61.18
77240;BME280;66258;53.170;-2.240;2024-01-15T02:53:05;99785.47;;;7.88;61.10
77240;BME280;66258;53.170;-2.240;2024-01-15T02:55:32;99790.63;;;7.82;61.10
77240;BME280;66258;53.170;-2.240;2024-01-15T02:58:01;99791.97;;;7.78;61.17
77240;BME280;66258;53.170;-2.240;2024-01-15T03:00:32;99779.25;;;7.62;61.58
77240;BME280;66258;53.170;-2.240;2024-01-15T03:03:00;99784.00;;;7.68;61.79
77240;BME280;66258;53.170;-2.240;2024-01-15T03:05:29;99788.22;;;7.71;61.83
77240;BME280;66258;53.170;-2.240;2024-01-15T03:07:57;99781.13;;;7.70;61.85
77240;BME280;66258;53.170;-2.240;2024-01-15T03:10:24;99774.72;;;7.63;61.73
77240;BME280;66258;53.170;-2.240;2024-01-15T03:12:55;99779.09;;;7.64;61.63
77240;BME280;66258;53.170;-2.240;2024-01-15T03:15:24;99787.50;;;7.61;61.60
77240;BME280;66258;53.170;-2.240;2024-01-15T03:17:52;99779.06;;;7.55;61.68
77240;BME280;66258;53.170;-2.240;2024-01-15T03:20:22;99766.88;;;7.43;61.87
77240;BME280;66258;53.170;-2.240;2024-01-15T03:22:50;99772.78;;;7.47;61.87
77240;BME280;66258;53.170;-2.240;2024-01-15T03:25:18;99774.28;;;7.41;61.93
77240;BME280;66258;53.170;-2.240;2024-01-15T03:27:46;99780.97;;;7.37;62.17
77240;BME280;66258;53.170;-2.240;2024-01-15T03:30:14;99772.88;;;7.37;62.48
77240;BME280;66258;53.170;-2.240;2024-01-15T03:32:46;99772.88;;;7.37;62.49
77240;BME280;66258;53.170;-2.240;2024-01-15T03:35:13;99763.66;;;7.40;62.37
77240;BME280;66258;53.170;-2.240;2024-01-15T03:37:40;99760.56;;;7.27;62.90
77240;BME280;66258;53.170;-2.240;2024-01-15T03:40:09;99757.34;;;7.23;63.00
77240;BME280;66258;53.170;-2.240;2024-01-15T03:42:36;99765.88;;;7.18;63.01
77240;BME280;66258;53.170;-2.240;2024-01-15T03:45:05;99767.50;;;7.11;63.19
77240;BME280;66258;53.170;-2.240;2024-01-15T03:47:32;99763.13;;;7.10;63.72
77240;BME280;66258;53.170;-2.240;2024-01-15T03:50:01;99759.28;;;7.13;63.97
77240;BME280;66258;53.170;-2.240;2024-01-15T03:52:29;99749.72;;;7.18;64.01
77240;BME280;66258;53.170;-2.240;2024-01-15T03:54:57;99750.09;;;7.23;64.11
77240;BME280;66258;53.170;-2.240;2024-01-15T03:57:24;99754.31;;;7.26;64.01
77240;BME280;66258;53.170;-2.240;2024-01-15T03:59:52;99753.63;;;7.24;64.32
77240;BME280;66258;53.170;-2.240;2024-01-15T04:02:20;99749.59;;;7.28;64.45
77240;BME280;66258;53.170;-2.240;2024-01-15T04:04:47;99757.19;;;7.24;64.99
77240;BME280;66258;53.170;-2.240;2024-01-15T04:07:17;99745.25;;;7.27;64.90
77240;BME280;66258;53.170;-2.240;2024-01-15T04:09:45;99748.56;;;7.21;64.62
77240;BME280;66258;53.170;-2.240;2024-01-15T04:12:13;99741.81;;;7.17;64.61
77240;BME280;66258;53.170;-2.240;2024-01-15T04:15:05;99740.13;;;7.16;64.37
77240;BME280;66258;53.170;-2.240;2024-01-15T04:17:34;99744.59;;;7.07;64.28
77240;BME280;66258;53.170;-2.240;2024-01-15T04:20:02;99736.69;;;7.06;64.42
77240;BME280;66258;53.170;-2.240;2024-01-15T04:22:30;99738.34;;;7.07;64.52
77240;BME280;66258;53.170;-2.240;2024-01-15T04:24:58;99728.63;;;7.06;64.66
77240;BME280;66258;53.170;-2.240;2024-01-15T04:27:28;99722.47;;;6.96;64.60
77240;BME280;66258;53.170;-2.240;2024-01-15T04:29:56;99726.09;;;6.86;65.02
77240;BME280;66258;53.170;-2.240;2024-01-15T04:32:24;99730.66;;;6.86;65.57
77240;BME280;66258;53.170;-2.240;2024-01-15T04:34:52;99735.38;;;6.84;66.26
77240;BME280;66258;53.170;-2.240;2024-01-15T04:37:20;99733.03;;;6.89;66.85
77240;BME280;66258;53.170;-2.240;2024-01-15T04:39:52;99742.56;;;7.01;67.61
77240;BME280;66258;53.170;-2.240;2024-01-15T04:42:19;99739.81;;;7.19;68.48
77240;BME280;66258;53.170;-2.240;2024-01-15T04:44:47;99734.50;;;7.35;69.12
77240;BME280;66258;53.170;-2.240;2024-01-15T04:47:15;99737.25;;;7.43;69.43
77240;BME280;66258;53.170;-2.240;2024-01-15T04:49:42;99740.28;;;7.48;69.92
77240;BME280;66258;53.170;-2.240;2024-01-15T04:52:10;99733.41;;;7.54;70.08
77240;BME280;66258;53.170;-2.240;2024-01-15T04:54:38;99741.06;;;7.67;70.36
77240;BME280;66258;53.170;-2.240;2024-01-15T04:57:06;99739.91;;;7.77;70.51
77240;BME280;66258;53.170;-2.240;2024-01-15T04:59:34;99741.31;;;7.89;70.24
77240;BME280;66258;53.170;-2.240;2024-01-15T05:02:03;99735.78;;;7.99;69.93
77240;BME280;66258;53.170;-2.240;2024-01-15T05:04:31;99738.47;;;7.99;69.67
77240;BME280;66258;53.170;-2.240;2024-01-15T05:06:58;99726.69;;;8.00;69.07
77240;BME280;66258;53.170;-2.240;2024-01-15T05:09:26;99725.69;;;8.01;68.83
77240;BME280;66258;53.170;-2.240;2024-01-15T05:11:59;99735.66;;;8.09;68.69
77240;BME280;66258;53.170;-2.240;2024-01-15T05:14:31;99741.22;;;8.07;68.83
77240;BME280;66258;53.170;-2.240;2024-01-15T05:16:59;99734.78;;;8.00;69.24
77240;BME280;66258;53.170;-2.240;2024-01-15T05:19:26;99734.28;;;8.13;68.87
77240;BME280;66258;53.170;-2.240;2024-01-15T05:21:55;99735.50;;;8.10;68.12
77240;BME280;66258;53.170;-2.240;2024-01-15T05:24:23;99737.31;;;8.02;67.96
77240;BME280;66258;53.170;-2.240;2024-01-15T05:26:51;99728.50;;;7.91;68.10
77240;BME280;66258;53.170;-2.240;2024-01-15T05:29:22;99722.63;;;7.88;68.46
77240;BME280;66258;53.170;-2.240;2024-01-15T05:31:51;99727.66;;;7.91;68.25
77240;BME280;66258;53.170;-2.240;2024-01-15T05:34:19;99732.19;;;7.82;68.00
77240;BME280;66258;53.170;-2.240;2024-01-15T05:36:47;99722.22;;;7.75;67.81
77240;BME280;66258;53.170;-2.240;2024-01-15T05:39:15;99726.44;;;7.77;67.48
77240;BME280;66258;53.170;-2.240;2024-01-15T05:41:43;99731.16;;;7.75;66.92
77240;BME280;66258;53.170;-2.240;2024-01-15T05:44:10;99720.00;;;7.62;67.08
77240;BME280;66258;53.170;-2.240;2024-01-15T05:46:38;99727.91;;;7.64;67.03
77240;BME280;66258;53.170;-2.240;2024-01-15T05:49:08;99736.38;;;7.77;67.23
77240;BME280;66258;53.170;-2.240;2024-01-15T05:51:36;99745.47;;;7.76;67.35
77240;BME280;66258;53.170;-2.240;2024-01-15T05:54:04;99736.38;;;7.69;67.02
77240;BME280;66258;53.170;-2.240;2024-01-15T05:56:32;99735.69;;;7.67;66.82
77240;BME280;66258;53.170;-2.240;2024-01-15T05:59:00;99735.63;;;7.58;66.84
77240;BME280;66258;53.170;-2.240;2024-01-15T06:01:28;99747.72;;;7.54;66.75
77240;BME280;66258;53.170;-2.240;2024-01-15T06:03:59;99739.28;;;7.49;66.50
77240;BME280;66258;53.170;-2.240;2024-01-15T06:06:28;99736.09;;;7.46;66.18
77240;BME280;66258;53.170;-2.240;2024-01-15T06:08:57;99733.81;;;7.33;66.11
77240;BME280;66258;53.170;-2.240;2024-01-15T06:11:29;99734.25;;;7.20;65.78
77240;BME280;66258;53.170;-2.240;2024-01-15T06:13:57;99741.28;;;7.13;65.69
77240;BME280;66258;53.170;-2.240;2024-01-15T06:16:26;99746.81;;;7.12;65.86
77240;BME280;66258;53.170;-2.240;2024-01-15T06:18:53;99754.84;;;7.04;65.67
77240;BME280;66258;53.170;-2.240;2024-01-15T06:21:24;99756.47;;;6.97;65.85
77240;BME280;66258;53.170;-2.240;2024-01-15T06:23:53;99763.47;;;6.89;65.83
77240;BME280;66258;53.170;-2.240;2024-01-15T06:26:20;99759.75;;;6.82;66.14
77240;BME280;66258;53.170;-2.240;2024-01-15T06:28:48;99768.41;;;6.76;66.53
77240;BME280;66258;53.170;-2.240;2024-01-15T06:31:17;99775.66;;;6.76;66.41
77240;BME280;66258;53.170;-2.240;2024-01-15T06:33:45;99764.19;;;6.74;66.49
77240;BME280;66258;53.170;-2.240;2024-01-15T06:36:13;99767.84;;;6.65;66.74
77240;BME280;66258;53.170;-2.240;2024-01-15T06:38:41;99767.13;;;6.63;66.60
77240;BME280;66258;53.170;-2.240;2024-01-15T06:41:10;99767.59;;;6.58;66.43
77240;BME280;66258;53.170;-2.240;2024-01-15T06:43:37;99771.13;;;6.59;66.47
77240;BME280;66258;53.170;-2.240;2024-01-15T06:46:04;99775.66;;;6.58;66.47
77240;BME280;66258;53.170;-2.240;2024-01-15T06:48:34;99774.03;;;6.47;66.43
77240;BME280;66258;53.170;-2.240;2024-01-15T06:51:01;99779.19;;;6.41;66.58
77240;BME280;66258;53.170;-2.240;2024-01-15T06:53:29;99786.72;;;6.37;66.64
77240;BME280;66258;53.170;-2.240;2024-01-15T06:55:56;99781.25;;;6.29;66.69
77240;BME280;66258;53.170;-2.240;2024-01-15T06:58:25;99785.22;;;6.25;66.86
77240;BME280;66258;53.170;-2.240;2024-01-15T07:00:53;99787.41;;;6.22;67.05
77240;BME280;66258;53.170;-2.240;2024-01-15T07:03:21;99795.91;;;6.17;66.82
77240;BME280;66258;53.170;-2.240;2024-01-15T07:05:48;99793.22;;;6.17;66.91
77240;BME280;66258;53.170;-2.240;2024-01-15T07:08:17;99787.16;;;6.15;66.87
77240;BME280;66258;53.170;-2.240;2024-01-15T07:10:45;99791.00;;;6.12;67.02
77240;BME280;66258;53.170;-2.240;2024-01-15T07:13:13;99787.91;;;6.07;67.02
77240;BME280;66258;53.170;-2.240;2024-01-15T07:15:43;99795.38;;;6.13;67.01
77240;BME280;66258;53.170;-2.240;2024-01-15T07:18:10;99797.50;;;6.10;67.38
77240;BME280;66258;53.170;-2.240;2024-01-15T07:20:38;99801.03;;;6.10;67.41
77240;BME280;66258;53.170;-2.240;2024-01-15T07:23:05;99795.97;;;6.07;67.21
77240;BME280;66258;53.170;-2.240;2024-01-15T07:25:36;99796.50;;;6.11;67.30
77240;BME280;66258;53.170;-2.240;2024-01-15T07:28:04;99788.03;;;6.06;67.38
77240;BME280;66258;53.170;-2.240;2024-01-15T07:30:32;99787.53;;;6.02;67.31
77240;BME280;66258;53.170;-2.240;2024-01-15T07:33:03;99789.25;;;5.94;67.41
77240;BME280;66258;53.170;-2.240;2024-01-15T07:35:31;99796.31;;;5.95;67.51
77240;BME280;66258;53.170;-2.240;2024-01-15T07:38:02;99801.69;;;5.95;67.84
77240;BME280;66258;53.170;-2.240;2024-01-15T07:40:30;99806.22;;;5.94;68.89
77240;BME280;66258;53.170;-2.240;2024-01-15T07:42:57;99814.22;;;6.04;69.73
77240;BME280;66258;53.170;-2.240;2024-01-15T07:45:26;99827.63;;;6.13;70.11
77240;BME280;66258;53.170;-2.240;2024-01-15T07:47:53;99829.03;;;6.17;70.60
77240;BME280;66258;53.170;-2.240;2024-01-15T07:50:22;99829.56;;;6.21;70.67
77240;BME280;66258;53.170;-2.240;2024-01-15T07:52:49;99832.59;;;6.36;70.64
77240;BME280;66258;53.170;-2.240;2024-01-15T07:55:17;99841.25;;;6.47;70.47
77240;BME280;66258;53.170;-2.240;2024-01-15T07:57:45;99830.06;;;6.52;70.31
77240;BME280;66258;53.170;-2.240;2024-01-15T08:00:26;99834.44;;;6.53;70.98
77240;BME280;66258;53.170;-2.240;2024-01-15T08:02:54;99838.66;;;6.55;71.78
77240;BME280;66258;53.170;-2.240;2024-01-15T08:05:24;99843.16;;;6.65;72.40
77240;BME280;66258;53.170;-2.240;2024-01-15T08:07:51;99837.13;;;6.71;72.78
77240;BME280;66258;53.170;-2.240;2024-01-15T08:10:21;99845.06;;;6.72;73.57
77240;BME280;66258;53.170;-2.240;2024-01-15T08:12:49;99843.44;;;6.97;73.32
77240;BME280;66258;53.170;-2.240;2024-01-15T08:15:17;99849.91;;;7.04;72.64
77240;BME280;66258;53.170;-2.240;2024-01-15T08:17:45;99860.09;;;7.18;71.73
77240;BME280;66258;53.170;-2.240;2024-01-15T08:20:13;99864.19;;;7.22;71.06
77240;BME280;66258;53.170;-2.240;2024-01-15T08:22:42;99868.19;;;7.18;70.45
77240;BME280;66258;53.170;-2.240;2024-01-15T08:25:09;99872.25;;;7.22;69.75
77240;BME280;66258;53.170;-2.240;2024-01-15T08:27:36;99879.53;;;7.30;69.21
77240;BME280;66258;53.170;-2.240;2024-01-15T08:30:04;99885.84;;;7.39;68.55
77240;BME280;66258;53.170;-2.240;2024-01-15T08:32:32;99889.69;;;7.36;67.68
77240;BME280;66258;53.170;-2.240;2024-01-15T08:35:01;99894.94;;;7.38;67.25
77240;BME280;66258;53.170;-2.240;2024-01-15T08:37:29;99901.00;;;7.40;66.67
77240;BME280;66258;53.170;-2.240;2024-01-15T08:39:58;99904.22;;;7.43;66.01
77240;BME280;66258;53.170;-2.240;2024-01-15T08:42:26;99906.09;;;7.43;65.82
77240;BME280;66258;53.170;-2.240;2024-01-15T08:44:55;99916.53;;;7.46;65.35
77240;BME280;66258;53.170;-2.240;2024-01-15T08:47:22;99925.63;;;7.45;65.18
77240;BME280;66258;53.170;-2.240;2024-01-15T08:49:49;99924.41;;;7.39;65.11
77240;BME280;66258;53.170;-2.240;2024-01-15T08:52:16;99921.09;;;7.45;65.08
77240;BME280;66258;53.170;-2.240;2024-01-15T08:54:43;99933.59;;;7.54;65.43
77240;BME280;66258;53.170;-2.240;2024-01-15T08:57:13;99935.53;;;7.62;65.08
77240;BME280;66258;53.170;-2.240;2024-01-15T08:59:40;99942.13;;;7.68;65.27
77240;BME280;66258;53.170;-2.240;2024-01-15T09:02:07;99939.19;;;7.79;64.81
77240;BME280;66258;53.170;-2.240;2024-01-15T09:04:34;99940.66;;;7.99;64.28
77240;BME280;66258;53.170;-2.240;2024-01-15T09:07:02;99945.09;;;8.08;63.28
77240;BME280;66258;53.170;-2.240;2024-01-15T09:09:30;99942.75;;;8.13;61.86
77240;BME280;66258;53.170;-2.240;2024-01-15T09:11:57;99936.63;;;8.29;61.42
77240;BME280;66258;53.170;-2.240;2024-01-15T09:14:26;99938.69;;;8.35;61.12
77240;BME280;66258;53.170;-2.240;2024-01-15T09:17:04;99933.81;;;8.39;60.51
77240;BME280;66258;53.170;-2.240;2024-01-15T09:19:32;99930.84;;;8.58;60.88
77240;BME280;66258;53.170;-2.240;2024-01-15T09:22:00;99936.19;;;8.92;61.43
77240;BME280;66258;53.170;-2.240;2024-01-15T09:24:27;99947.75;;;9.35;59.74
77240;BME280;66258;53.170;-2.240;2024-01-15T09:26:56;99951.97;;;9.53;56.96
77240;BME280;66258;53.170;-2.240;2024-01-15T09:29:23;99953.31;;;9.65;55.94
77240;BME280;66258;53.170;-2.240;2024-01-15T09:31:53;99961.72;;;10.03;54.30
77240;BME280;66258;53.170;-2.240;2024-01-15T09:34:20;99949.88;;;10.04;51.89
77240;BME280;66258;53.170;-2.240;2024-01-15T09:36:48;99962.56;;;10.04;51.91
77240;BME280;66258;53.170;-2.240;2024-01-15T09:39:15;99962.31;;;10.46;52.45
77240;BME280;66258;53.170;-2.240;2024-01-15T09:41:44;99964.47;;;10.97;52.41
77240;BME280;66258;53.170;-2.240;2024-01-15T09:44:12;99960.84;;;11.36;48.82
77240;BME280;66258;53.170;-2.240;2024-01-15T09:46:40;99968.53;;;11.47;47.06
77240;BME280;66258;53.170;-2.240;2024-01-15T09:49:10;99964.63;;;11.50;45.57
77240;BME280;66258;53.170;-2.240;2024-01-15T09:51:39;99962.75;;;11.50;45.57
77240;BME280;66258;53.170;-2.240;2024-01-15T09:54:07;99971.50;;;11.38;45.02
77240;BME280;66258;53.170;-2.240;2024-01-15T09:56:36;99969.38;;;11.25;44.84
77240;BME280;66258;53.170;-2.240;2024-01-15T09:59:02;99972.38;;;11.30;45.22
77240;BME280;66258;53.170;-2.240;2024-01-15T10:01:32;99980.94;;;11.19;44.85
77240;BME280;66258;53.170;-2.240;2024-01-15T10:04:00;99981.41;;;11.22;43.98
77240;BME280;66258;53.170;-2.240;2024-01-15T10:06:29;99987.44;;;11.32;44.13
77240;BME280;66258;53.170;-2.240;2024-01-15T10:08:57;99995.09;;;11.75;43.98
77240;BME280;66258;53.170;-2.240;2024-01-15T10:11:25;99996.13;;;11.96;43.26
77240;BME280;66258;53.170;-2.240;2024-01-15T10:13:55;99999.84;;;11.73;42.52
77240;BME280;66258;53.170;-2.240;2024-01-15T10:16:24;99998.16;;;11.80;43.51
77240;BME280;66258;53.170;-2.240;2024-01-15T10:18:52;99997.13;;;11.81;42.38
77240;BME280;66258;53.170;-2.240;2024-01-15T10:21:20;100002.88;;;11.55;43.35
77240;BME280;66258;53.170;-2.240;2024-01-15T10:23:50;100009.66;;;11.28;43.65
77240;BME280;66258;53.170;-2.240;2024-01-15T10:26:18;100010.78;;;11.42;43.08
77240;BME280;66258;53.170;-2.240;2024-01-15T10:28:50;100004.19;;;11.05;43.16
77240;BME280;66258;53.170;-2.240;2024-01-15T10:31:17;100011.88;;;10.93;43.32
77240;BME280;66258;53.170;-2.240;2024-01-15T10:33:44;100008.59;;;10.67;43.65
77240;BME280;66258;53.170;-2.240;2024-01-15T10:36:11;100001.91;;;10.47;44.07
77240;BME280;66258;53.170;-2.240;2024-01-15T10:38:38;100011.75;;;10.31;44.80
77240;BME280;66258;53.170;-2.240;2024-01-15T10:41:07;100019.53;;;10.35;44.46
77240;BME280;66258;53.170;-2.240;2024-01-15T10:43:38;100022.19;;;10.51;44.51
77240;BME280;66258;53.170;-2.240;2024-01-15T10:46:06;100020.03;;;10.38;43.93
77240;BME280;66258;53.170;-2.240;2024-01-15T10:48:34;100015.88;;;10.66;44.95
77240;BME280;66258;53.170;-2.240;2024-01-15T10:51:02;100022.66;;;11.01;44.25
77240;BME280;66258;53.170;-2.240;2024-01-15T10:53:32;100021.63;;;11.02;43.66
77240;BME280;66258;53.170;-2.240;2024-01-15T10:56:00;100023.72;;;10.92;43.47
77240;BME280;66258;53.170;-2.240;2024-01-15T10:58:31;100017.56;;;10.67;43.59
77240;BME280;66258;53.170;-2.240;2024-01-15T11:01:01;100023.25;;;10.89;44.00
77240;BME280;66258;53.170;-2.240;2024-01-15T11:03:30;100021.06;;;10.84;43.39
77240;BME280;66258;53.170;-2.240;2024-01-15T11:05:58;100016.47;;;10.85;43.93
77240;BME280;66258;53.170;-2.240;2024-01-15T11:08:27;100010.34;;;10.52;44.28
77240;BME280;66258;53.170;-2.240;2024-01-15T11:10:55;100016.38;;;10.70;44.07
77240;BME280;66258;53.170;-2.240;2024-01-15T11:13:41;100010.97;;;10.62;45.07
77240;BME280;66258;53.170;-2.240;2024-01-15T11:16:10;100012.47;;;10.73;44.67
77240;BME280;66258;53.170;-2.240;2024-01-15T11:18:40;100017.03;;;10.80;43.46
77240;BME280;66258;53.170;-2.240;2024-01-15T11:21:23;100012.25;;;10.82;44.00
77240;BME280;66258;53.170;-2.240;2024-01-15T11:23:52;100006.63;;;10.45;42.85
77240;BME280;66258;53.170;-2.240;2024-01-15T11:26:28;100017.34;;;10.22;43.24
77240;BME280;66258;53.170;-2.240;2024-01-15T11:28:58;100016.63;;;10.44;43.31
77240;BME280;66258;53.170;-2.240;2024-01-15T11:31:28;100025.03;;;11.05;43.01
77240;BME280;66258;53.170;-2.240;2024-01-15T11:33:59;100022.63;;;11.10;41.83
77240;BME280;66258;53.170;-2.240;2024-01-15T11:37:03;100021.00;;;11.00;41.77
77240;BME280;66258;53.170;-2.240;2024-01-15T11:39:40;100010.19;;;11.23;40.38
77240;BME280;66258;53.170;-2.240;2024-01-15T11:42:09;100012.34;;;11.59;40.18
77240;BME280;66258;53.170;-2.240;2024-01-15T11:44:38;100012.19;;;12.21;40.20
77240;BME280;66258;53.170;-2.240;2024-01-15T11:47:06;100006.13;;;11.96;38.71
77240;BME280;66258;53.170;-2.240;2024-01-15T11:49:58;100013.81;;;12.45;39.02
77240;BME280;66258;53.170;-2.240;2024-01-15T11:52:33;100011.47;;;12.71;38.59
77240;BME280;66258;53.170;-2.240;2024-01-15T11:55:22;100001.75;;;12.10;38.28
77240;BME280;66258;53.170;-2.240;2024-01-15T11:57:51;100001.72;;;11.49;37.78
77240;BME280;66258;53.170;-2.240;2024-01-15T12:00:22;100001.41;;;11.44;38.95
77240;BME280;66258;53.170;-2.240;2024-01-15T12:02:50;99999.09;;;11.41;38.88
77240;BME280;66258;53.170;-2.240;2024-01-15T12:05:18;99997.78;;;11.29;38.32
77240;BME280;66258;53.170;-2.240;2024-01-15T12:07:48;99993.25;;;11.52;38.57
77240;BME280;66258;53.170;-2.240;2024-01-15T12:10:19;99991.72;;;11.50;39.19
77240;BME280;66258;53.170;-2.240;2024-01-15T12:13:00;99991.59;;;11.66;37.98
77240;BME280;66258;53.170;-2.240;2024-01-15T12:15:33;99991.00;;;12.01;38.51
77240;BME280;66258;53.170;-2.240;2024-01-15T12:18:01;99992.25;;;11.68;37.40
77240;BME280;66258;53.170;-2.240;2024-01-15T12:20:30;99993.78;;;11.70;36.83
77240;BME280;66258;53.170;-2.240;2024-01-15T12:23:01;99998.56;;;12.06;36.70
77240;BME280;66258;53.170;-2.240;2024-01-15T12:25:33;100002.66;;;12.39;36.88
77240;BME280;66258;53.170;-2.240;2024-01-15T12:28:01;99999.28;;;12.82;36.38
77240;BME280;66258;53.170;-2.240;2024-01-15T12:30:34;100006.88;;;12.86;35.28
77240;BME280;66258;53.170;-2.240;2024-01-15T12:33:02;99997.59;;;12.22;36.20
77240;BME280;66258;53.170;-2.240;2024-01-15T12:35:30;100000.31;;;12.36;35.72
77240;BME280;66258;53.170;-2.240;2024-01-15T12:37:57;99998.38;;;12.60;35.85
77240;BME280;66258;53.170;-2.240;2024-01-15T12:40:24;99999.09;;;12.54;35.42
77240;BME280;66258;53.170;-2.240;2024-01-15T12:42:52;100002.44;;;12.26;35.01
77240;BME280;66258;53.170;-2.240;2024-01-15T12:45:18;99996.97;;;11.97;34.59
77240;BME280;66258;53.170;-2.240;2024-01-15T12:47:47;99995.00;;;11.91;35.05
77240;BME280;66258;53.170;-2.240;2024-01-15T12:50:18;99996.28;;;12.18;34.67
77240;BME280;66258;53.170;-2.240;2024-01-15T12:52:47;99994.63;;;12.61;33.60
77240;BME280;66258;53.170;-2.240;2024-01-15T12:55:15;99995.53;;;12.24;34.07
77240;BME280;66258;53.170;-2.240;2024-01-15T12:57:43;100004.81;;;12.59;34.18
77240;BME280;66258;53.170;-2.240;2024-01-15T13:00:12;100009.69;;;12.49;33.91
77240;BME280;66258;53.170;-2.240;2024-01-15T13:02:41;100010.34;;;12.51;33.69
77240;BME280;66258;53.170;-2.240;2024-01-15T13:05:13;100015.00;;;11.90;33.17